sensor_id;sensor_type;location;lat;lon;timestamp;P1;durP1;ratioP1;P2;durP2;ratioP2
4810;SDS011;2419;51.276;6.472;2022-07-05T00:01:37;1.77;;;1.67;;
4810;SDS011;2419;51.276;6.472;2022-07-05T00:04:05;2.40;;;2.00;;
4810;SDS011;2419;51.276;6.472;2022-07-05T00:06:33;1.90;;;1.70;;
4810;SDS011;2419;51.276;6.472;2022-07-05T00:09:01;2.13;;;1.93;;
4810;SDS011;2419;51.276;6.472;2022-07-05T00:11:31;2.10;;;1.90;;
4810;SDS011;2419;51.276;6.472;2022-07-05T00:13:59;2.33;;;2.03;;
4810;SDS011;2419;51.276;6.472;2022-07-05T00:16:27;1.87;;;1.60;;
4810;SDS011;2419;51.276;6.472;2022-07-05T00:18:56;1.97;;;1.77;;
4810;SDS011;2419;51.276;6.472;2022-07-05T00:21:24;2.40;;;1.93;;
4810;SDS011;2419;51.276;6.472;2022-07-05T00:23:52;2.90;;;2.03;;
4810;SDS011;2419;51.276;6.472;2022-07-05T00:26:20;1.70;;;1.60;;
4810;SDS011;2419;51.276;6.472;2022-07-05T00:28:49;1.83;;;1.67;;
4810;SDS011;2419;51.276;6.472;2022-07-05T00:31:17;1.90;;;1.80;;
4810;SDS011;2419;51.276;6.472;2022-07-05T00:33:46;2.13;;;1.93;;
4810;SDS011;2419;51.276;6.472;2022-07-05T00:36:14;1.50;;;1.40;;
4810;SDS011;2419;51.276;6.472;2022-07-05T00:38:42;1.93;;;1.80;;
4810;SDS011;2419;51.276;6.472;2022-07-05T00:41:10;3.33;;;2.37;;
4810;SDS011;2419;51.276;6.472;2022-07-05T00:43:51;2.20;;;1.87;;
4810;SDS011;2419;51.276;6.472;2022-07-05T00:46:20;1.77;;;1.60;;
4810;SDS011;2419;51.276;6.472;2022-07-05T00:48:50;2.30;;;2.03;;
4810;SDS011;2419;51.276;6.472;2022-07-05T00:51:18;1.73;;;1.63;;
4810;SDS011;2419;51.276;6.472;2022-07-05T00:53:47;1.73;;;1.63;;
4810;SDS011;2419;51.276;6.472;2022-07-05T00:56:17;2.07;;;1.83;;
4810;SDS011;2419;51.276;6.472;2022-07-05T00:58:46;2.70;;;2.10;;
4810;SDS011;2419;51.276;6.472;2022-07-05T01:01:16;2.83;;;2.30;;
4810;SDS011;2419;51.276;6.472;2022-07-05T01:03:45;2.07;;;1.90;;
4810;SDS011;2419;51.276;6.472;2022-07-05T01:06:13;2.10;;;1.80;;
4810;SDS011;2419;51.276;6.472;2022-07-05T01:08:44;2.10;;;1.90;;
4810;SDS011;2419;51.276;6.472;2022-07-05T01:11:13;2.27;;;2.07;;
4810;SDS011;2419;51.276;6.472;2022-07-05T01:13:41;1.70;;;1.60;;
4810;SDS011;2419;51.276;6.472;2022-07-05T01:16:09;1.63;;;1.53;;
4810;SDS011;2419;51.276;6.472;2022-07-05T01:18:39;3.17;;;1.83;;
4810;SDS011;2419;51.276;6.472;2022-07-05T01:21:08;2.10;;;1.87;;
4810;SDS011;2419;51.276;6.472;2022-07-05T01:23:42;2.83;;;2.13;;
4810;SDS011;2419;51.276;6.472;2022-07-05T01:26:10;1.90;;;1.60;;
4810;SDS011;2419;51.276;6.472;2022-07-05T01:28:38;2.03;;;1.83;;
4810;SDS011;2419;51.276;6.472;2022-07-05T01:31:07;1.80;;;1.70;;
4810;SDS011;2419;51.276;6.472;2022-07-05T01:33:35;1.80;;;1.70;;
4810;SDS011;2419;51.276;6.472;2022-07-05T01:36:03;3.37;;;1.70;;
4810;SDS011;2419;51.276;6.472;2022-07-05T01:38:32;2.30;;;2.10;;
4810;SDS011;2419;51.276;6.472;2022-07-05T01:41:01;3.93;;;2.30;;
4810;SDS011;2419;51.276;6.472;2022-07-05T01:43:30;2.43;;;2.20;;
4810;SDS011;2419;51.276;6.472;2022-07-05T01:45:58;3.70;;;1.70;;
4810;SDS011;2419;51.276;6.472;2022-07-05T01:48:32;1.83;;;1.73;;
4810;SDS011;2419;51.276;6.472;2022-07-05T01:51:03;2.30;;;2.10;;
4810;SDS011;2419;51.276;6.472;2022-07-05T01:53:33;2.23;;;1.90;;
4810;SDS011;2419;51.276;6.472;2022-07-05T01:56:02;2.10;;;1.70;;
4810;SDS011;2419;51.276;6.472;2022-07-05T01:58:31;2.20;;;2.00;;
4810;SDS011;2419;51.276;6.472;2022-07-05T02:00:59;2.07;;;1.87;;
4810;SDS011;2419;51.276;6.472;2022-07-05T02:03:28;2.33;;;2.13;;
4810;SDS011;2419;51.276;6.472;2022-07-05T02:06:17;2.20;;;2.00;;
4810;SDS011;2419;51.276;6.472;2022-07-05T02:08:45;2.00;;;1.80;;
4810;SDS011;2419;51.276;6.472;2022-07-05T02:11:15;1.80;;;1.70;;
4810;SDS011;2419;51.276;6.472;2022-07-05T02:13:43;1.90;;;1.80;;
4810;SDS011;2419;51.276;6.472;2022-07-05T02:16:11;2.20;;;2.00;;
4810;SDS011;2419;51.276;6.472;2022-07-05T02:18:40;2.10;;;1.90;;
4810;SDS011;2419;51.276;6.472;2022-07-05T02:21:08;2.53;;;2.10;;
4810;SDS011;2419;51.276;6.472;2022-07-05T02:23:37;2.10;;;1.90;;
4810;SDS011;2419;51.276;6.472;2022-07-05T02:26:07;2.30;;;2.00;;
4810;SDS011;2419;51.276;6.472;2022-07-05T02:28:39;3.03;;;2.43;;
4810;SDS011;2419;51.276;6.472;2022-07-05T02:31:08;1.63;;;1.50;;
4810;SDS011;2419;51.276;6.472;2022-07-05T02:33:38;2.27;;;2.10;;
4810;SDS011;2419;51.276;6.472;2022-07-05T02:36:07;1.80;;;1.70;;
4810;SDS011;2419;51.276;6.472;2022-07-05T02:38:36;4.90;;;2.00;;
4810;SDS011;2419;51.276;6.472;2022-07-05T02:41:06;1.80;;;1.70;;
4810;SDS011;2419;51.276;6.472;2022-07-05T02:43:36;1.73;;;1.63;;
4810;SDS011;2419;51.276;6.472;2022-07-05T02:46:08;2.40;;;2.13;;
4810;SDS011;2419;51.276;6.472;2022-07-05T02:48:37;2.80;;;1.73;;
4810;SDS011;2419;51.276;6.472;2022-07-05T02:51:07;2.57;;;2.00;;
4810;SDS011;2419;51.276;6.472;2022-07-05T02:53:35;3.50;;;2.00;;
4810;SDS011;2419;51.276;6.472;2022-07-05T02:56:06;2.20;;;2.00;;
4810;SDS011;2419;51.276;6.472;2022-07-05T02:58:36;2.70;;;2.00;;
4810;SDS011;2419;51.276;6.472;2022-07-05T03:01:06;2.20;;;1.90;;
4810;SDS011;2419;51.276;6.472;2022-07-05T03:03:37;2.70;;;2.10;;
4810;SDS011;2419;51.276;6.472;2022-07-05T03:06:07;2.13;;;1.93;;
4810;SDS011;2419;51.276;6.472;2022-07-05T03:08:36;2.63;;;2.43;;
4810;SDS011;2419;51.276;6.472;2022-07-05T03:11:04;2.90;;;2.03;;
4810;SDS011;2419;51.276;6.472;2022-07-05T03:13:34;2.17;;;1.97;;
4810;SDS011;2419;51.276;6.472;2022-07-05T03:16:03;2.80;;;2.07;;
4810;SDS011;2419;51.276;6.472;2022-07-05T03:18:33;2.60;;;2.40;;
4810;SDS011;2419;51.276;6.472;2022-07-05T03:21:04;2.10;;;1.90;;
4810;SDS011;2419;51.276;6.472;2022-07-05T03:23:33;3.03;;;2.23;;
4810;SDS011;2419;51.276;6.472;2022-07-05T03:26:02;1.60;;;1.50;;
4810;SDS011;2419;51.276;6.472;2022-07-05T03:28:30;1.83;;;1.73;;
4810;SDS011;2419;51.276;6.472;2022-07-05T03:31:00;3.33;;;2.30;;
4810;SDS011;2419;51.276;6.472;2022-07-05T03:33:34;4.27;;;2.00;;
4810;SDS011;2419;51.276;6.472;2022-07-05T03:36:05;2.73;;;2.30;;
4810;SDS011;2419;51.276;6.472;2022-07-05T03:38:36;2.50;;;2.10;;
4810;SDS011;2419;51.276;6.472;2022-07-05T03:41:05;2.27;;;2.00;;
4810;SDS011;2419;51.276;6.472;2022-07-05T03:43:33;2.37;;;2.17;;
4810;SDS011;2419;51.276;6.472;2022-07-05T03:46:02;2.47;;;2.13;;
4810;SDS011;2419;51.276;6.472;2022-07-05T03:48:33;3.17;;;2.27;;
4810;SDS011;2419;51.276;6.472;2022-07-05T03:51:08;3.37;;;2.33;;
4810;SDS011;2419;51.276;6.472;2022-07-05T03:53:38;3.20;;;2.30;;
4810;SDS011;2419;51.276;6.472;2022-07-05T03:56:06;2.53;;;2.33;;
4810;SDS011;2419;51.276;6.472;2022-07-05T03:58:35;2.87;;;2.47;;
4810;SDS011;2419;51.276;6.472;2022-07-05T04:01:04;2.27;;;2.07;;
4810;SDS011;2419;51.276;6.472;2022-07-05T04:03:34;3.47;;;2.90;;
4810;SDS011;2419;51.276;6.472;2022-07-05T04:06:09;5.33;;;2.20;;
4810;SDS011;2419;51.276;6.472;2022-07-05T04:08:37;3.37;;;2.70;;
4810;SDS011;2419;51.276;6.472;2022-07-05T04:11:06;2.20;;;2.00;;
4810;SDS011;2419;51.276;6.472;2022-07-05T04:13:36;2.53;;;2.33;;
4810;SDS011;2419;51.276;6.472;2022-07-05T04:16:05;2.60;;;2.40;;
4810;SDS011;2419;51.276;6.472;2022-07-05T04:18:35;2.37;;;2.17;;
4810;SDS011;2419;51.276;6.472;2022-07-05T04:21:04;2.13;;;1.93;;
4810;SDS011;2419;51.276;6.472;2022-07-05T04:23:33;2.63;;;2.40;;
4810;SDS011;2419;51.276;6.472;2022-07-05T04:26:03;2.80;;;2.07;;
4810;SDS011;2419;51.276;6.472;2022-07-05T04:28:37;2.20;;;2.00;;
4810;SDS011;2419;51.276;6.472;2022-07-05T04:31:08;2.70;;;2.37;;
4810;SDS011;2419;51.276;6.472;2022-07-05T04:33:42;3.03;;;2.50;;
4810;SDS011;2419;51.276;6.472;2022-07-05T04:36:14;2.37;;;2.17;;
4810;SDS011;2419;51.276;6.472;2022-07-05T04:38:43;2.50;;;2.07;;
4810;SDS011;2419;51.276;6.472;2022-07-05T04:41:12;2.50;;;1.93;;
4810;SDS011;2419;51.276;6.472;2022-07-05T04:43:40;2.13;;;1.93;;
4810;SDS011;2419;51.276;6.472;2022-07-05T04:46:11;2.13;;;1.93;;
4810;SDS011;2419;51.276;6.472;2022-07-05T04:48:41;2.93;;;2.63;;
4810;SDS011;2419;51.276;6.472;2022-07-05T04:51:11;2.40;;;2.07;;
4810;SDS011;2419;51.276;6.472;2022-07-05T04:53:40;4.30;;;2.00;;
4810;SDS011;2419;51.276;6.472;2022-07-05T04:56:11;2.17;;;1.80;;
4810;SDS011;2419;51.276;6.472;2022-07-05T04:58:39;2.47;;;2.10;;
4810;SDS011;2419;51.276;6.472;2022-07-05T05:01:07;3.27;;;2.07;;
4810;SDS011;2419;51.276;6.472;2022-07-05T05:03:35;2.57;;;2.30;;
4810;SDS011;2419;51.276;6.472;2022-07-05T05:06:05;2.03;;;1.83;;
4810;SDS011;2419;51.276;6.472;2022-07-05T05:08:33;2.47;;;2.03;;
4810;SDS011;2419;51.276;6.472;2022-07-05T05:11:01;2.60;;;1.93;;
4810;SDS011;2419;51.276;6.472;2022-07-05T05:13:29;2.90;;;1.93;;
4810;SDS011;2419;51.276;6.472;2022-07-05T05:15:58;1.97;;;1.77;;
4810;SDS011;2419;51.276;6.472;2022-07-05T05:18:26;3.67;;;2.10;;
4810;SDS011;2419;51.276;6.472;2022-07-05T05:20:54;2.13;;;1.50;;
4810;SDS011;2419;51.276;6.472;2022-07-05T05:23:24;1.97;;;1.80;;
4810;SDS011;2419;51.276;6.472;2022-07-05T05:25:52;1.70;;;1.60;;
4810;SDS011;2419;51.276;6.472;2022-07-05T05:28:20;1.63;;;1.50;;
4810;SDS011;2419;51.276;6.472;2022-07-05T05:30:48;2.10;;;1.90;;
4810;SDS011;2419;51.276;6.472;2022-07-05T05:33:16;3.70;;;1.77;;
4810;SDS011;2419;51.276;6.472;2022-07-05T05:35:51;2.13;;;1.90;;
4810;SDS011;2419;51.276;6.472;2022-07-05T05:38:19;2.23;;;2.00;;
4810;SDS011;2419;51.276;6.472;2022-07-05T05:40:48;2.10;;;1.53;;
4810;SDS011;2419;51.276;6.472;2022-07-05T05:43:16;2.17;;;1.97;;
4810;SDS011;2419;51.276;6.472;2022-07-05T05:45:45;3.37;;;1.87;;
4810;SDS011;2419;51.276;6.472;2022-07-05T05:48:13;1.80;;;1.70;;
4810;SDS011;2419;51.276;6.472;2022-07-05T05:50:41;3.30;;;1.97;;
4810;SDS011;2419;51.276;6.472;2022-07-05T05:53:09;2.70;;;1.50;;
4810;SDS011;2419;51.276;6.472;2022-07-05T05:55:37;3.10;;;1.80;;
4810;SDS011;2419;51.276;6.472;2022-07-05T05:58:11;4.07;;;1.90;;
4810;SDS011;2419;51.276;6.472;2022-07-05T06:00:41;3.30;;;2.17;;
4810;SDS011;2419;51.276;6.472;2022-07-05T06:03:09;2.30;;;2.00;;
4810;SDS011;2419;51.276;6.472;2022-07-05T06:05:38;2.50;;;2.00;;
4810;SDS011;2419;51.276;6.472;2022-07-05T06:08:06;1.77;;;1.63;;
4810;SDS011;2419;51.276;6.472;2022-07-05T06:10:34;2.07;;;1.87;;
4810;SDS011;2419;51.276;6.472;2022-07-05T06:13:04;2.50;;;1.90;;
4810;SDS011;2419;51.276;6.472;2022-07-05T06:15:33;2.30;;;1.80;;
4810;SDS011;2419;51.276;6.472;2022-07-05T06:18:02;2.00;;;1.80;;
4810;SDS011;2419;51.276;6.472;2022-07-05T06:20:31;3.17;;;1.87;;
4810;SDS011;2419;51.276;6.472;2022-07-05T06:23:01;1.73;;;1.60;;
4810;SDS011;2419;51.276;6.472;2022-07-05T06:25:30;1.50;;;1.20;;
4810;SDS011;2419;51.276;6.472;2022-07-05T06:28:00;2.30;;;1.40;;
4810;SDS011;2419;51.276;6.472;2022-07-05T06:30:34;1.53;;;1.43;;
4810;SDS011;2419;51.276;6.472;2022-07-05T06:33:03;2.30;;;1.77;;
4810;SDS011;2419;51.276;6.472;2022-07-05T06:35:32;1.60;;;1.50;;
4810;SDS011;2419;51.276;6.472;2022-07-05T06:38:00;1.83;;;1.73;;
4810;SDS011;2419;51.276;6.472;2022-07-05T06:40:29;1.70;;;1.60;;
4810;SDS011;2419;51.276;6.472;2022-07-05T06:42:58;3.07;;;1.70;;
4810;SDS011;2419;51.276;6.472;2022-07-05T06:45:47;2.10;;;1.63;;
4810;SDS011;2419;51.276;6.472;2022-07-05T06:48:33;2.00;;;1.47;;
4810;SDS011;2419;51.276;6.472;2022-07-05T06:51:03;2.50;;;1.77;;
4810;SDS011;2419;51.276;6.472;2022-07-05T06:53:32;2.03;;;1.70;;
4810;SDS011;2419;51.276;6.472;2022-07-05T06:56:00;1.80;;;1.37;;
4810;SDS011;2419;51.276;6.472;2022-07-05T06:58:28;3.03;;;1.90;;
4810;SDS011;2419;51.276;6.472;2022-07-05T07:00:58;2.03;;;1.40;;
4810;SDS011;2419;51.276;6.472;2022-07-05T07:03:46;2.07;;;1.50;;
4810;SDS011;2419;51.276;6.472;2022-07-05T07:06:34;2.50;;;1.30;;
4810;SDS011;2419;51.276;6.472;2022-07-05T07:09:03;2.40;;;1.50;;
4810;SDS011;2419;51.276;6.472;2022-07-05T07:11:45;2.20;;;1.40;;
4810;SDS011;2419;51.276;6.472;2022-07-05T07:14:13;2.50;;;1.63;;
4810;SDS011;2419;51.276;6.472;2022-07-05T07:16:43;1.60;;;1.50;;
4810;SDS011;2419;51.276;6.472;2022-07-05T07:19:11;1.53;;;1.30;;
4810;SDS011;2419;51.276;6.472;2022-07-05T07:21:41;1.10;;;1.00;;
4810;SDS011;2419;51.276;6.472;2022-07-05T07:24:10;1.30;;;1.20;;
4810;SDS011;2419;51.276;6.472;2022-07-05T07:26:39;2.00;;;1.27;;
4810;SDS011;2419;51.276;6.472;2022-07-05T07:29:21;1.10;;;1.00;;
4810;SDS011;2419;51.276;6.472;2022-07-05T07:31:51;1.40;;;1.27;;
4810;SDS011;2419;51.276;6.472;2022-07-05T07:34:19;0.90;;;0.90;;
4810;SDS011;2419;51.276;6.472;2022-07-05T07:36:47;1.03;;;0.83;;
4810;SDS011;2419;51.276;6.472;2022-07-05T07:39:15;0.80;;;0.80;;
4810;SDS011;2419;51.276;6.472;2022-07-05T07:41:43;0.80;;;0.80;;
4810;SDS011;2419;51.276;6.472;2022-07-05T07:44:11;1.00;;;0.90;;
4810;SDS011;2419;51.276;6.472;2022-07-05T07:46:39;0.97;;;0.97;;
4810;SDS011;2419;51.276;6.472;2022-07-05T07:49:09;0.90;;;0.90;;
4810;SDS011;2419;51.276;6.472;2022-07-05T07:51:38;1.00;;;0.90;;
4810;SDS011;2419;51.276;6.472;2022-07-05T07:54:07;1.13;;;0.97;;
4810;SDS011;2419;51.276;6.472;2022-07-05T07:56:39;0.80;;;0.80;;
4810;SDS011;2419;51.276;6.472;2022-07-05T07:59:07;1.20;;;1.10;;
4810;SDS011;2419;51.276;6.472;2022-07-05T08:01:36;1.60;;;1.50;;
4810;SDS011;2419;51.276;6.472;2022-07-05T08:04:12;0.87;;;0.87;;
4810;SDS011;2419;51.276;6.472;2022-07-05T08:06:42;1.30;;;1.17;;
4810;SDS011;2419;51.276;6.472;2022-07-05T08:09:11;1.10;;;1.00;;
4810;SDS011;2419;51.276;6.472;2022-07-05T08:11:43;1.10;;;0.90;;
4810;SDS011;2419;51.276;6.472;2022-07-05T08:14:12;1.00;;;0.90;;
4810;SDS011;2419;51.276;6.472;2022-07-05T08:16:40;0.90;;;0.90;;
4810;SDS011;2419;51.276;6.472;2022-07-05T08:19:17;0.83;;;0.83;;
4810;SDS011;2419;51.276;6.472;2022-07-05T08:22:03;2.37;;;0.97;;
4810;SDS011;2419;51.276;6.472;2022-07-05T08:24:34;1.43;;;0.90;;
4810;SDS011;2419;51.276;6.472;2022-07-05T08:27:03;3.30;;;2.43;;
4810;SDS011;2419;51.276;6.472;2022-07-05T08:29:32;1.00;;;0.83;;
4810;SDS011;2419;51.276;6.472;2022-07-05T08:32:00;1.13;;;1.07;;
4810;SDS011;2419;51.276;6.472;2022-07-05T08:34:30;0.90;;;0.80;;
4810;SDS011;2419;51.276;6.472;2022-07-05T08:36:58;1.10;;;1.00;;
4810;SDS011;2419;51.276;6.472;2022-07-05T08:39:27;2.70;;;1.10;;
4810;SDS011;2419;51.276;6.472;2022-07-05T08:41:56;1.67;;;1.07;;
4810;SDS011;2419;51.276;6.472;2022-07-05T08:44:27;0.80;;;0.73;;
4810;SDS011;2419;51.276;6.472;2022-07-05T08:46:56;1.00;;;0.90;;
4810;SDS011;2419;51.276;6.472;2022-07-05T08:49:26;1.00;;;0.90;;
4810;SDS011;2419;51.276;6.472;2022-07-05T08:51:56;0.70;;;0.70;;
4810;SDS011;2419;51.276;6.472;2022-07-05T08:54:26;1.00;;;0.90;;
4810;SDS011;2419;51.276;6.472;2022-07-05T08:56:54;1.07;;;0.97;;
4810;SDS011;2419;51.276;6.472;2022-07-05T08:59:40;1.13;;;1.03;;
4810;SDS011;2419;51.276;6.472;2022-07-05T09:02:10;1.20;;;1.10;;
4810;SDS011;2419;51.276;6.472;2022-07-05T09:04:42;1.30;;;1.20;;
4810;SDS011;2419;51.276;6.472;2022-07-05T09:07:16;1.30;;;1.20;;
4810;SDS011;2419;51.276;6.472;2022-07-05T09:09:48;1.70;;;1.10;;
4810;SDS011;2419;51.276;6.472;2022-07-05T09:12:18;1.40;;;1.30;;
4810;SDS011;2419;51.276;6.472;2022-07-05T09:14:52;1.43;;;1.00;;
4810;SDS011;2419;51.276;6.472;2022-07-05T09:17:21;2.77;;;1.17;;
4810;SDS011;2419;51.276;6.472;2022-07-05T09:20:09;1.67;;;1.20;;
4810;SDS011;2419;51.276;6.472;2022-07-05T09:22:47;1.67;;;1.23;;
4810;SDS011;2419;51.276;6.472;2022-07-05T09:25:20;1.40;;;1.30;;
4810;SDS011;2419;51.276;6.472;2022-07-05T09:27:50;1.80;;;1.30;;
4810;SDS011;2419;51.276;6.472;2022-07-05T09:30:31;1.20;;;1.10;;
4810;SDS011;2419;51.276;6.472;2022-07-05T09:33:03;1.40;;;1.30;;
4810;SDS011;2419;51.276;6.472;2022-07-05T09:35:35;1.83;;;1.20;;
4810;SDS011;2419;51.276;6.472;2022-07-05T09:38:15;1.10;;;1.00;;
4810;SDS011;2419;51.276;6.472;2022-07-05T09:40:47;1.57;;;1.33;;
4810;SDS011;2419;51.276;6.472;2022-07-05T09:43:17;1.47;;;1.33;;
4810;SDS011;2419;51.276;6.472;2022-07-05T09:45:49;2.00;;;1.10;;
4810;SDS011;2419;51.276;6.472;2022-07-05T09:48:19;1.43;;;1.10;;
4810;SDS011;2419;51.276;6.472;2022-07-05T09:51:04;1.27;;;1.17;;
4810;SDS011;2419;51.276;6.472;2022-07-05T09:53:55;1.30;;;1.20;;
4810;SDS011;2419;51.276;6.472;2022-07-05T09:56:29;1.20;;;1.10;;
4810;SDS011;2419;51.276;6.472;2022-07-05T09:59:14;1.67;;;1.30;;
4810;SDS011;2419;51.276;6.472;2022-07-05T10:01:49;1.57;;;1.30;;
4810;SDS011;2419;51.276;6.472;2022-07-05T10:04:18;1.67;;;1.57;;
4810;SDS011;2419;51.276;6.472;2022-07-05T10:06:47;1.43;;;1.17;;
4810;SDS011;2419;51.276;6.472;2022-07-05T10:09:16;1.60;;;1.20;;
4810;SDS011;2419;51.276;6.472;2022-07-05T10:11:46;1.17;;;1.07;;
4810;SDS011;2419;51.276;6.472;2022-07-05T10:14:42;1.30;;;1.20;;
4810;SDS011;2419;51.276;6.472;2022-07-05T10:17:21;1.13;;;1.03;;
4810;SDS011;2419;51.276;6.472;2022-07-05T10:19:51;1.20;;;1.10;;
4810;SDS011;2419;51.276;6.472;2022-07-05T10:22:34;1.23;;;1.13;;
4810;SDS011;2419;51.276;6.472;2022-07-05T10:25:28;1.23;;;1.10;;
4810;SDS011;2419;51.276;6.472;2022-07-05T10:27:58;1.20;;;1.10;;
4810;SDS011;2419;51.276;6.472;2022-07-05T10:30:33;1.23;;;1.13;;
4810;SDS011;2419;51.276;6.472;2022-07-05T10:33:08;1.30;;;1.20;;
4810;SDS011;2419;51.276;6.472;2022-07-05T10:35:48;1.47;;;1.37;;
4810;SDS011;2419;51.276;6.472;2022-07-05T10:38:20;1.20;;;1.10;;
4810;SDS011;2419;51.276;6.472;2022-07-05T10:41:08;1.30;;;1.10;;
4810;SDS011;2419;51.276;6.472;2022-07-05T10:43:56;1.00;;;1.00;;
4810;SDS011;2419;51.276;6.472;2022-07-05T10:46:32;1.73;;;1.20;;
4810;SDS011;2419;51.276;6.472;2022-07-05T10:49:10;1.00;;;0.93;;
4810;SDS011;2419;51.276;6.472;2022-07-05T10:51:46;1.20;;;1.10;;
4810;SDS011;2419;51.276;6.472;2022-07-05T10:54:19;1.40;;;1.30;;
4810;SDS011;2419;51.276;6.472;2022-07-05T11:03:03;1.47;;;1.30;;
4810;SDS011;2419;51.276;6.472;2022-07-05T11:05:33;0.90;;;0.90;;
4810;SDS011;2419;51.276;6.472;2022-07-05T11:08:28;1.33;;;1.23;;
4810;SDS011;2419;51.276;6.472;2022-07-05T11:11:23;1.77;;;1.30;;
4810;SDS011;2419;51.276;6.472;2022-07-05T11:13:52;1.40;;;1.23;;
4810;SDS011;2419;51.276;6.472;2022-07-05T11:16:22;1.50;;;1.33;;
4810;SDS011;2419;51.276;6.472;2022-07-05T11:18:53;1.03;;;1.00;;
4810;SDS011;2419;51.276;6.472;2022-07-05T11:21:40;1.20;;;1.10;;
4810;SDS011;2419;51.276;6.472;2022-07-05T11:24:30;1.30;;;1.10;;
4810;SDS011;2419;51.276;6.472;2022-07-05T11:26:59;1.30;;;1.20;;
4810;SDS011;2419;51.276;6.472;2022-07-05T11:29:40;1.23;;;1.13;;
4810;SDS011;2419;51.276;6.472;2022-07-05T11:32:11;1.00;;;1.00;;
4810;SDS011;2419;51.276;6.472;2022-07-05T11:34:41;1.30;;;1.20;;
4810;SDS011;2419;51.276;6.472;2022-07-05T11:37:19;1.33;;;1.23;;
4810;SDS011;2419;51.276;6.472;2022-07-05T11:43:03;1.30;;;1.20;;
4810;SDS011;2419;51.276;6.472;2022-07-05T11:45:34;0.90;;;0.90;;
4810;SDS011;2419;51.276;6.472;2022-07-05T11:48:06;1.00;;;0.90;;
4810;SDS011;2419;51.276;6.472;2022-07-05T11:50:42;1.50;;;1.30;;
4810;SDS011;2419;51.276;6.472;2022-07-05T11:53:10;2.07;;;1.20;;
4810;SDS011;2419;51.276;6.472;2022-07-05T11:55:39;0.97;;;0.90;;
4810;SDS011;2419;51.276;6.472;2022-07-05T11:58:37;1.73;;;1.33;;
4810;SDS011;2419;51.276;6.472;2022-07-05T12:01:12;2.17;;;1.20;;
4810;SDS011;2419;51.276;6.472;2022-07-05T12:03:42;1.50;;;1.40;;
4810;SDS011;2419;51.276;6.472;2022-07-05T12:06:32;2.20;;;1.17;;
4810;SDS011;2419;51.276;6.472;2022-07-05T12:09:08;1.40;;;1.30;;
4810;SDS011;2419;51.276;6.472;2022-07-05T12:11:36;1.60;;;1.50;;
4810;SDS011;2419;51.276;6.472;2022-07-05T12:14:28;1.30;;;1.20;;
4810;SDS011;2419;51.276;6.472;2022-07-05T12:17:10;1.17;;;1.07;;
4810;SDS011;2419;51.276;6.472;2022-07-05T12:19:47;1.70;;;1.60;;
4810;SDS011;2419;51.276;6.472;2022-07-05T12:22:26;1.23;;;1.13;;
4810;SDS011;2419;51.276;6.472;2022-07-05T12:24:55;1.27;;;1.13;;
4810;SDS011;2419;51.276;6.472;2022-07-05T12:27:25;1.20;;;1.10;;
4810;SDS011;2419;51.276;6.472;2022-07-05T12:29:53;1.40;;;1.30;;
4810;SDS011;2419;51.276;6.472;2022-07-05T12:32:22;1.83;;;1.17;;
4810;SDS011;2419;51.276;6.472;2022-07-05T12:34:52;1.20;;;1.10;;
4810;SDS011;2419;51.276;6.472;2022-07-05T12:37:20;1.33;;;1.20;;
4810;SDS011;2419;51.276;6.472;2022-07-05T12:39:49;1.20;;;1.10;;
4810;SDS011;2419;51.276;6.472;2022-07-05T12:42:30;1.53;;;1.10;;
4810;SDS011;2419;51.276;6.472;2022-07-05T12:45:11;2.13;;;1.23;;
4810;SDS011;2419;51.276;6.472;2022-07-05T12:47:47;1.00;;;1.00;;
4810;SDS011;2419;51.276;6.472;2022-07-05T12:50:18;1.60;;;1.10;;
4810;SDS011;2419;51.276;6.472;2022-07-05T12:52:53;1.30;;;1.20;;
4810;SDS011;2419;51.276;6.472;2022-07-05T12:55:57;1.13;;;1.03;;
4810;SDS011;2419;51.276;6.472;2022-07-05T12:58:47;1.10;;;1.00;;
4810;SDS011;2419;51.276;6.472;2022-07-05T13:01:20;1.00;;;0.90;;
4810;SDS011;2419;51.276;6.472;2022-07-05T13:04:00;1.33;;;1.23;;
4810;SDS011;2419;51.276;6.472;2022-07-05T13:06:41;1.93;;;1.20;;
4810;SDS011;2419;51.276;6.472;2022-07-05T13:09:11;1.50;;;1.03;;
4810;SDS011;2419;51.276;6.472;2022-07-05T13:11:40;1.10;;;1.00;;
4810;SDS011;2419;51.276;6.472;2022-07-05T13:14:08;1.40;;;1.30;;
4810;SDS011;2419;51.276;6.472;2022-07-05T13:16:37;1.67;;;1.27;;
4810;SDS011;2419;51.276;6.472;2022-07-05T13:19:05;1.53;;;0.93;;
4810;SDS011;2419;51.276;6.472;2022-07-05T13:21:34;2.03;;;1.10;;
4810;SDS011;2419;51.276;6.472;2022-07-05T13:24:04;1.93;;;1.00;;
4810;SDS011;2419;51.276;6.472;2022-07-05T13:26:33;1.30;;;1.20;;
4810;SDS011;2419;51.276;6.472;2022-07-05T13:29:01;0.97;;;0.93;;
4810;SDS011;2419;51.276;6.472;2022-07-05T13:31:30;0.93;;;0.90;;
4810;SDS011;2419;51.276;6.472;2022-07-05T13:33:58;0.93;;;0.93;;
4810;SDS011;2419;51.276;6.472;2022-07-05T13:36:27;1.10;;;1.00;;
4810;SDS011;2419;51.276;6.472;2022-07-05T13:38:55;1.10;;;1.00;;
4810;SDS011;2419;51.276;6.472;2022-07-05T13:41:25;1.13;;;1.03;;
4810;SDS011;2419;51.276;6.472;2022-07-05T13:43:53;1.20;;;1.10;;
4810;SDS011;2419;51.276;6.472;2022-07-05T13:46:21;1.37;;;1.20;;
4810;SDS011;2419;51.276;6.472;2022-07-05T13:48:49;1.50;;;1.13;;
4810;SDS011;2419;51.276;6.472;2022-07-05T13:51:17;0.97;;;0.93;;
4810;SDS011;2419;51.276;6.472;2022-07-05T13:53:51;1.27;;;1.17;;
4810;SDS011;2419;51.276;6.472;2022-07-05T13:56:19;1.30;;;1.10;;
4810;SDS011;2419;51.276;6.472;2022-07-05T13:58:49;1.37;;;1.27;;
4810;SDS011;2419;51.276;6.472;2022-07-05T14:01:17;1.47;;;1.10;;
4810;SDS011;2419;51.276;6.472;2022-07-05T14:03:47;1.87;;;1.20;;
4810;SDS011;2419;51.276;6.472;2022-07-05T14:06:15;1.70;;;1.60;;
4810;SDS011;2419;51.276;6.472;2022-07-05T14:08:43;1.27;;;1.17;;
4810;SDS011;2419;51.276;6.472;2022-07-05T14:11:16;1.50;;;1.40;;
4810;SDS011;2419;51.276;6.472;2022-07-05T14:13:44;1.20;;;1.10;;
4810;SDS011;2419;51.276;6.472;2022-07-05T14:16:16;1.33;;;1.20;;
4810;SDS011;2419;51.276;6.472;2022-07-05T14:18:45;1.90;;;1.27;;
4810;SDS011;2419;51.276;6.472;2022-07-05T14:21:13;1.67;;;1.43;;
4810;SDS011;2419;51.276;6.472;2022-07-05T14:23:43;1.97;;;1.30;;
4810;SDS011;2419;51.276;6.472;2022-07-05T14:26:12;1.63;;;1.40;;
4810;SDS011;2419;51.276;6.472;2022-07-05T14:28:41;2.80;;;1.50;;
4810;SDS011;2419;51.276;6.472;2022-07-05T14:31:09;1.50;;;1.40;;
4810;SDS011;2419;51.276;6.472;2022-07-05T14:33:39;2.13;;;1.70;;
4810;SDS011;2419;51.276;6.472;2022-07-05T14:36:08;1.83;;;1.40;;
4810;SDS011;2419;51.276;6.472;2022-07-05T14:38:36;1.30;;;1.20;;
4810;SDS011;2419;51.276;6.472;2022-07-05T14:41:04;1.60;;;1.50;;
4810;SDS011;2419;51.276;6.472;2022-07-05T14:43:33;1.40;;;1.30;;
4810;SDS011;2419;51.276;6.472;2022-07-05T14:46:01;1.37;;;1.27;;
4810;SDS011;2419;51.276;6.472;2022-07-05T14:48:30;2.70;;;1.40;;
4810;SDS011;2419;51.276;6.472;2022-07-05T14:51:00;1.37;;;1.27;;
4810;SDS011;2419;51.276;6.472;2022-07-05T14:53:30;1.67;;;1.57;;
4810;SDS011;2419;51.276;6.472;2022-07-05T14:55:58;2.23;;;2.03;;
4810;SDS011;2419;51.276;6.472;2022-07-05T14:58:27;1.73;;;1.63;;
4810;SDS011;2419;51.276;6.472;2022-07-05T15:00:58;1.50;;;1.40;;
4810;SDS011;2419;51.276;6.472;2022-07-05T15:03:26;1.63;;;1.50;;
4810;SDS011;2419;51.276;6.472;2022-07-05T15:05:54;2.37;;;2.10;;
4810;SDS011;2419;51.276;6.472;2022-07-05T15:08:24;1.90;;;1.70;;
4810;SDS011;2419;51.276;6.472;2022-07-05T15:10:54;1.63;;;1.50;;
4810;SDS011;2419;51.276;6.472;2022-07-05T15:13:22;1.33;;;1.23;;
4810;SDS011;2419;51.276;6.472;2022-07-05T15:15:51;1.60;;;1.40;;
4810;SDS011;2419;51.276;6.472;2022-07-05T15:18:19;1.23;;;1.13;;
4810;SDS011;2419;51.276;6.472;2022-07-05T15:20:48;1.87;;;1.73;;
4810;SDS011;2419;51.276;6.472;2022-07-05T15:23:26;2.63;;;1.27;;
4810;SDS011;2419;51.276;6.472;2022-07-05T15:25:55;1.63;;;1.50;;
4810;SDS011;2419;51.276;6.472;2022-07-05T15:28:24;1.20;;;1.10;;
4810;SDS011;2419;51.276;6.472;2022-07-05T15:30:52;1.50;;;1.20;;
4810;SDS011;2419;51.276;6.472;2022-07-05T15:33:21;2.07;;;1.30;;
4810;SDS011;2419;51.276;6.472;2022-07-05T15:35:55;2.13;;;1.33;;
4810;SDS011;2419;51.276;6.472;2022-07-05T15:38:26;1.43;;;1.30;;
4810;SDS011;2419;51.276;6.472;2022-07-05T15:40:54;1.30;;;1.20;;
4810;SDS011;2419;51.276;6.472;2022-07-05T15:43:23;2.70;;;1.30;;
4810;SDS011;2419;51.276;6.472;2022-07-05T15:45:54;1.50;;;1.30;;
4810;SDS011;2419;51.276;6.472;2022-07-05T15:48:24;1.40;;;1.20;;
4810;SDS011;2419;51.276;6.472;2022-07-05T15:50:54;1.47;;;1.10;;